Time;durP1;ratioP1;P1;durP2;ratioP2;P2;SDS_P1;SDS_P2;PMS_P1;PMS_P2;Temp;Humidity;BMP_temperature;BMP_pressure;BME280_temperature;BME280_humidity;BME280_pressure;Samples;Min_cycle;Max_cycle;Signal;HPM_P1;HPM_P2
2023/06/29 00:01:54;;;;;;;12.55;7.35;;;;;;;;;;4988327;27;94338;-76
2023/06/29 00:04:21;;;;;;;15.75;8.30;;;;;;;;;;4978626;27;93293;-76
2023/06/29 00:06:49;;;;;;;16.75;9.35;;;;;;;;;;4991129;27;92529;-76
2023/06/29 00:09:16;;;;;;;14.07;8.30;;;;;;;;;;4986406;28;95901;-76
2023/06/29 00:11:43;;;;;;;13.68;7.75;;;;;;;;;;4988035;27;91814;-76
2023/06/29 00:14:09;;;;;;;14.45;8.60;;;;;;;;;;4991563;28;92780;-77
2023/06/29 00:16:36;;;;;;;16.25;8.73;;;;;;;;;;4981261;28;93014;-76
2023/06/29 00:19:03;;;;;;;15.95;8.60;;;;;;;;;;4985357;28;96347;-76
2023/06/29 00:21:30;;;;;;;14.38;8.50;;;;;;;;;;4987751;27;94036;-76
2023/06/29 00:23:56;;;;;;;16.42;8.70;;;;;;;;;;4987801;28;94033;-76
2023/06/29 00:26:23;;;;;;;14.75;8.07;;;;;;;;;;4987367;27;92947;-76
2023/06/29 00:28:49;;;;;;;14.35;8.60;;;;;;;;;;4986480;27;93364;-76
2023/06/29 00:31:18;;;;;;;14.90;8.73;;;;;;;;;;4987485;27;92410;-77
2023/06/29 00:33:45;;;;;;;15.25;8.68;;;;;;;;;;4975678;28;93174;-75
2023/06/29 00:36:11;;;;;;;16.13;8.02;;;;;;;;;;4953961;28;93392;-76
2023/06/29 00:38:38;;;;;;;13.70;8.13;;;;;;;;;;4982159;28;92527;-76
2023/06/29 00:41:04;;;;;;;15.13;8.40;;;;;;;;;;4989807;28;94337;-75
2023/06/29 00:43:31;;;;;;;15.18;8.70;;;;;;;;;;4986841;28;98130;-76
2023/06/29 00:45:58;;;;;;;15.23;8.80;;;;;;;;;;4972742;28;92977;-75
2023/06/29 00:48:25;;;;;;;15.18;8.52;;;;;;;;;;4993970;27;93380;-76
2023/06/29 00:50:52;;;;;;;18.92;9.07;;;;;;;;;;4989329;28;92761;-75
2023/06/29 00:53:18;;;;;;;17.90;8.50;;;;;;;;;;4990283;27;92636;-74
2023/06/29 00:55:47;;;;;;;14.50;8.63;;;;;;;;;;4990163;28;97577;-75
2023/06/29 00:58:14;;;;;;;15.85;8.55;;;;;;;;;;4989251;28;93239;-75
2023/06/29 01:00:41;;;;;;;15.23;8.27;;;;;;;;;;4990694;27;92750;-76
2023/06/29 01:03:09;;;;;;;16.25;8.60;;;;;;;;;;4998310;28;92886;-75
2023/06/29 01:05:38;;;;;;;15.73;8.45;;;;;;;;;;4988256;27;92937;-75
2023/06/29 01:08:07;;;;;;;16.63;8.52;;;;;;;;;;4987279;28;95283;-75
2023/06/29 01:10:37;;;;;;;15.68;8.40;;;;;;;;;;4993394;28;93014;-75
2023/06/29 01:13:06;;;;;;;17.17;8.80;;;;;;;;;;4974411;28;93466;-75
2023/06/29 01:15:34;;;;;;;14.50;8.02;;;;;;;;;;4989178;27;93234;-75
2023/06/29 01:18:03;;;;;;;16.30;9.15;;;;;;;;;;4991599;28;92544;-76
2023/06/29 01:20:33;;;;;;;16.27;8.32;;;;;;;;;;4962902;28;96225;-75
2023/06/29 01:23:06;;;;;;;16.02;8.60;;;;;;;;;;4986054;28;95940;-76
2023/06/29 01:25:35;;;;;;;14.52;8.40;;;;;;;;;;4988917;27;92295;-75
2023/06/29 01:28:05;;;;;;;14.65;8.18;;;;;;;;;;4986806;28;93615;-75
2023/06/29 01:30:39;;;;;;;16.23;9.38;;;;;;;;;;4978636;28;94154;-75
2023/06/29 01:33:07;;;;;;;17.33;9.80;;;;;;;;;;4992271;28;95271;-76
2023/06/29 01:35:34;;;;;;;17.30;9.82;;;;;;;;;;4982831;28;93737;-76
2023/06/29 01:38:10;;;;;;;19.20;9.68;;;;;;;;;;4988450;28;92503;-75
2023/06/29 01:40:37;;;;;;;17.00;9.73;;;;;;;;;;4990372;27;92892;-75
2023/06/29 01:43:04;;;;;;;15.90;8.50;;;;;;;;;;4977458;28;93573;-76
2023/06/29 01:45:32;;;;;;;16.55;8.27;;;;;;;;;;4987134;28;93264;-76
2023/06/29 01:47:59;;;;;;;17.13;8.05;;;;;;;;;;4995473;28;92695;-76
2023/06/29 01:50:26;;;;;;;16.60;9.55;;;;;;;;;;4991352;28;95312;-76
2023/06/29 01:52:53;;;;;;;16.35;8.40;;;;;;;;;;4990796;28;92739;-75
2023/06/29 01:55:19;;;;;;;15.25;9.52;;;;;;;;;;4996576;28;93956;-75
2023/06/29 01:57:46;;;;;;;17.20;9.98;;;;;;;;;;4993239;28;95204;-77
2023/06/29 02:00:14;;;;;;;17.23;8.75;;;;;;;;;;4989899;28;98372;-76
2023/06/29 02:02:41;;;;;;;16.65;8.85;;;;;;;;;;4985682;28;92797;-76
2023/06/29 02:05:08;;;;;;;15.20;8.73;;;;;;;;;;4995797;28;92421;-77
2023/06/29 02:07:35;;;;;;;16.13;8.88;;;;;;;;;;5000662;28;92710;-76
2023/06/29 02:10:02;;;;;;;16.88;8.88;;;;;;;;;;5002012;28;95487;-76
2023/06/29 02:12:29;;;;;;;15.50;8.85;;;;;;;;;;4999506;28;93044;-75
2023/06/29 02:14:56;;;;;;;16.73;8.90;;;;;;;;;;4999800;28;92066;-77
2023/06/29 02:17:22;;;;;;;16.27;8.98;;;;;;;;;;5002401;28;92850;-76
2023/06/29 02:19:49;;;;;;;15.10;8.52;;;;;;;;;;4996315;28;94083;-76
2023/06/29 02:22:16;;;;;;;15.07;8.40;;;;;;;;;;4970275;28;95765;-77
2023/06/29 02:24:42;;;;;;;17.27;8.95;;;;;;;;;;4974135;28;92520;-76
2023/06/29 02:27:09;;;;;;;15.70;7.97;;;;;;;;;;4991568;28;92799;-77
2023/06/29 02:29:35;;;;;;;18.88;9.18;;;;;;;;;;4991577;27;93130;-76
2023/06/29 02:32:02;;;;;;;20.02;9.40;;;;;;;;;;4992514;28;92481;-77
2023/06/29 02:34:30;;;;;;;14.48;8.70;;;;;;;;;;4987699;28;96065;-76
2023/06/29 02:36:57;;;;;;;16.35;8.77;;;;;;;;;;4973765;28;93106;-77
2023/06/29 02:39:24;;;;;;;15.95;8.82;;;;;;;;;;4988155;28;96743;-77
2023/06/29 02:41:51;;;;;;;14.10;8.63;;;;;;;;;;4987137;28;94978;-76
2023/06/29 02:44:18;;;;;;;20.23;11.27;;;;;;;;;;4987714;28;92784;-77
2023/06/29 02:46:45;;;;;;;20.08;10.05;;;;;;;;;;4987167;28;95407;-77
2023/06/29 02:49:13;;;;;;;16.95;9.32;;;;;;;;;;4986421;28;95722;-76
2023/06/29 02:51:41;;;;;;;17.27;9.57;;;;;;;;;;4970034;27;93030;-77
2023/06/29 02:54:10;;;;;;;15.68;8.68;;;;;;;;;;4974107;28;93905;-76
2023/06/29 02:56:37;;;;;;;16.48;9.05;;;;;;;;;;4986255;28;93952;-76
2023/06/29 02:59:03;;;;;;;16.48;8.73;;;;;;;;;;4991597;28;92453;-77
2023/06/29 03:01:30;;;;;;;17.50;10.30;;;;;;;;;;4988254;27;93032;-76
2023/06/29 03:03:57;;;;;;;15.82;8.95;;;;;;;;;;4983073;28;91894;-76
2023/06/29 03:06:25;;;;;;;18.50;9.23;;;;;;;;;;4988870;28;92453;-76
2023/06/29 03:08:52;;;;;;;17.10;9.20;;;;;;;;;;4988632;28;93310;-76
2023/06/29 03:11:18;;;;;;;14.90;8.60;;;;;;;;;;4986956;27;94840;-77
2023/06/29 03:13:46;;;;;;;16.85;9.50;;;;;;;;;;4988782;28;96834;-75
2023/06/29 03:16:13;;;;;;;16.20;8.93;;;;;;;;;;4986941;28;93298;-76
2023/06/29 03:18:39;;;;;;;20.33;9.90;;;;;;;;;;4981185;28;92860;-76
2023/06/29 03:21:06;;;;;;;15.52;8.30;;;;;;;;;;4973314;28;96027;-77
2023/06/29 03:23:43;;;;;;;17.27;9.18;;;;;;;;;;4987005;27;92562;-77
2023/06/29 03:26:10;;;;;;;15.73;9.02;;;;;;;;;;4988619;28;94149;-75
2023/06/29 03:28:36;;;;;;;18.55;10.30;;;;;;;;;;4979683;28;92183;-75
2023/06/29 03:31:03;;;;;;;19.00;9.10;;;;;;;;;;4980441;28;92613;-75
2023/06/29 03:33:30;;;;;;;15.75;8.65;;;;;;;;;;4989528;28;93803;-75
2023/06/29 03:35:56;;;;;;;16.52;9.13;;;;;;;;;;4992397;28;95447;-75
2023/06/29 03:38:23;;;;;;;18.48;9.57;;;;;;;;;;4987899;27;92440;-75
2023/06/29 03:40:50;;;;;;;16.55;8.80;;;;;;;;;;4987619;28;92792;-75
2023/06/29 03:43:16;;;;;;;17.08;9.32;;;;;;;;;;4991418;28;93476;-75
2023/06/29 03:45:43;;;;;;;18.13;9.32;;;;;;;;;;4982812;28;93242;-75
2023/06/29 03:48:10;;;;;;;18.60;10.63;;;;;;;;;;4967206;28;94790;-74
2023/06/29 03:50:36;;;;;;;18.40;9.82;;;;;;;;;;4985706;28;92516;-74
2023/06/29 03:53:03;;;;;;;16.98;9.55;;;;;;;;;;4977761;28;92889;-74
2023/06/29 03:55:29;;;;;;;17.55;9.25;;;;;;;;;;4985078;28;93149;-74
2023/06/29 03:57:57;;;;;;;18.55;10.13;;;;;;;;;;4988911;27;93209;-75
2023/06/29 04:00:24;;;;;;;17.80;8.90;;;;;;;;;;4980396;28;95733;-75
2023/06/29 04:02:50;;;;;;;17.23;9.45;;;;;;;;;;4990612;27;92453;-75
2023/06/29 04:05:17;;;;;;;17.13;9.52;;;;;;;;;;5001532;28;92507;-75
2023/06/29 04:07:44;;;;;;;18.17;9.27;;;;;;;;;;4980281;28;92452;-75
2023/06/29 04:10:10;;;;;;;17.27;10.35;;;;;;;;;;4992902;27;92533;-75
2023/06/29 04:12:38;;;;;;;16.35;9.68;;;;;;;;;;4989009;28;96224;-75
2023/06/29 04:15:05;;;;;;;16.95;9.32;;;;;;;;;;4990672;27;95410;-77
2023/06/29 04:17:32;;;;;;;17.40;9.40;;;;;;;;;;4991174;27;91738;-76
2023/06/29 04:19:58;;;;;;;18.77;9.90;;;;;;;;;;4989311;27;92488;-76
2023/06/29 04:22:25;;;;;;;19.73;9.90;;;;;;;;;;4991328;27;94347;-75
2023/06/29 04:24:51;;;;;;;17.42;10.40;;;;;;;;;;4985459;28;94911;-75
2023/06/29 04:27:18;;;;;;;18.90;10.65;;;;;;;;;;4984936;28;93218;-76
2023/06/29 04:29:45;;;;;;;16.70;9.18;;;;;;;;;;4989581;28;93825;-77
2023/06/29 04:32:11;;;;;;;16.50;9.32;;;;;;;;;;4991168;27;94008;-76
2023/06/29 04:34:38;;;;;;;20.58;10.88;;;;;;;;;;4990656;27;94561;-76
2023/06/29 04:37:06;;;;;;;17.13;10.02;;;;;;;;;;4990267;27;92596;-76
2023/06/29 04:39:33;;;;;;;17.85;9.70;;;;;;;;;;4987554;27;93092;-76
2023/06/29 04:42:02;;;;;;;18.38;9.93;;;;;;;;;;4988295;27;92673;-76
2023/06/29 04:44:32;;;;;;;18.33;9.70;;;;;;;;;;4979818;28;92560;-76
2023/06/29 04:47:02;;;;;;;17.85;9.65;;;;;;;;;;4992027;28;94186;-77
2023/06/29 04:49:31;;;;;;;17.40;9.68;;;;;;;;;;4988400;27;95059;-76
2023/06/29 04:52:02;;;;;;;19.00;9.75;;;;;;;;;;4984477;28;95689;-76
2023/06/29 04:54:28;;;;;;;18.80;9.75;;;;;;;;;;4959089;28;94325;-76
2023/06/29 04:56:56;;;;;;;19.02;9.95;;;;;;;;;;4970583;28;92557;-77
2023/06/29 04:59:23;;;;;;;25.15;13.57;;;;;;;;;;4969445;28;92597;-76
2023/06/29 05:01:50;;;;;;;20.05;10.65;;;;;;;;;;4968956;28;93643;-77
2023/06/29 05:04:17;;;;;;;20.88;11.38;;;;;;;;;;4959671;28;92878;-76
2023/06/29 05:06:43;;;;;;;19.60;10.27;;;;;;;;;;4961259;28;93489;-76
2023/06/29 05:09:10;;;;;;;20.17;11.10;;;;;;;;;;4972053;28;93015;-76
2023/06/29 05:11:36;;;;;;;18.55;9.90;;;;;;;;;;4999409;28;93058;-76
2023/06/29 05:14:03;;;;;;;18.55;9.90;;;;;;;;;;4968124;28;96854;-75
2023/06/29 05:16:29;;;;;;;24.92;13.90;;;;;;;;;;4969909;28;92834;-76
2023/06/29 05:18:56;;;;;;;23.85;13.20;;;;;;;;;;4969830;28;93064;-76
2023/06/29 05:21:23;;;;;;;26.50;13.10;;;;;;;;;;4965658;28;93290;-76
2023/06/29 05:23:49;;;;;;;26.45;15.02;;;;;;;;;;5000766;28;96241;-76
2023/06/29 05:26:16;;;;;;;23.65;12.80;;;;;;;;;;4966563;28;93646;-76
2023/06/29 05:28:43;;;;;;;20.48;11.05;;;;;;;;;;4967921;28;92733;-76
2023/06/29 05:31:29;;;;;;;22.02;12.68;;;;;;;;;;4971110;28;91898;-76
2023/06/29 05:33:56;;;;;;;21.08;10.98;;;;;;;;;;4964769;28;93220;-76
2023/06/29 05:36:22;;;;;;;25.23;13.75;;;;;;;;;;4968819;28;92543;-76
2023/06/29 05:38:49;;;;;;;19.42;10.32;;;;;;;;;;4964934;28;95565;-75
2023/06/29 05:41:16;;;;;;;23.25;10.90;;;;;;;;;;4969320;28;93039;-76
2023/06/29 05:43:42;;;;;;;22.42;10.82;;;;;;;;;;4968717;28;92687;-75
2023/06/29 05:46:09;;;;;;;19.27;9.82;;;;;;;;;;4969270;28;93055;-75
2023/06/29 05:48:35;;;;;;;19.95;10.27;;;;;;;;;;4970667;28;93172;-76
2023/06/29 05:51:02;;;;;;;16.98;9.35;;;;;;;;;;5002507;28;92726;-76
2023/06/29 05:53:29;;;;;;;17.60;9.48;;;;;;;;;;4971118;28;93237;-75
2023/06/29 05:55:55;;;;;;;16.25;8.93;;;;;;;;;;4971430;28;91671;-75
2023/06/29 05:58:23;;;;;;;17.08;8.90;;;;;;;;;;4972019;28;92576;-76
2023/06/29 06:00:51;;;;;;;15.20;8.35;;;;;;;;;;4974816;28;94008;-76
2023/06/29 06:03:17;;;;;;;16.23;8.35;;;;;;;;;;4988506;28;94815;-75
2023/06/29 06:05:44;;;;;;;17.67;9.00;;;;;;;;;;4988734;28;95241;-76
2023/06/29 06:08:10;;;;;;;16.20;8.82;;;;;;;;;;4981058;28;93098;-76
2023/06/29 06:10:41;;;;;;;18.00;9.25;;;;;;;;;;4982066;27;93896;-78
2023/06/29 06:13:08;;;;;;;15.68;8.18;;;;;;;;;;4963660;28;92997;-78
2023/06/29 06:15:34;;;;;;;15.93;7.88;;;;;;;;;;4973191;28;94489;-78
2023/06/29 06:18:01;;;;;;;15.73;8.02;;;;;;;;;;4974249;28;92999;-78
2023/06/29 06:20:28;;;;;;;15.80;8.25;;;;;;;;;;4960918;28;92957;-78
2023/06/29 06:22:54;;;;;;;16.08;7.43;;;;;;;;;;5004395;28;93848;-78
2023/06/29 06:25:21;;;;;;;13.85;7.70;;;;;;;;;;4970309;28;93520;-78
2023/06/29 06:27:48;;;;;;;15.27;8.15;;;;;;;;;;4983644;28;95642;-78
2023/06/29 06:30:15;;;;;;;16.40;8.30;;;;;;;;;;4960385;28;92419;-79
2023/06/29 06:32:41;;;;;;;17.73;8.07;;;;;;;;;;4958860;28;93271;-79
2023/06/29 06:35:09;;;;;;;15.35;8.75;;;;;;;;;;4991051;28;94485;-79
2023/06/29 06:37:36;;;;;;;16.08;8.93;;;;;;;;;;4968211;28;93940;-79
2023/06/29 06:40:07;;;;;;;16.20;8.82;;;;;;;;;;4953073;28;93203;-80
2023/06/29 06:42:34;;;;;;;16.48;9.18;;;;;;;;;;4949038;28;92535;-79
2023/06/29 06:45:03;;;;;;;;;;;;;;;;;;4957839;28;93991;-80
2023/06/29 06:47:31;;;;;;;16.40;9.00;;;;;;;;;;4974379;27;95165;-78
2023/06/29 06:49:58;;;;;;;19.02;9.82;;;;;;;;;;4981581;28;92612;-78
2023/06/29 06:52:25;;;;;;;;;;;;;;;;;;4986055;28;94915;-78
2023/06/29 06:54:52;;;;;;;16.00;8.88;;;;;;;;;;4991138;28;93558;-79
2023/06/29 06:57:19;;;;;;;17.20;9.68;;;;;;;;;;4991051;28;92531;-78
2023/06/29 06:59:45;;;;;;;17.63;9.20;;;;;;;;;;4966429;28;93244;-79
2023/06/29 07:02:13;;;;;;;19.10;9.73;;;;;;;;;;4958922;28;92928;-80
2023/06/29 07:04:40;;;;;;;19.17;9.77;;;;;;;;;;4967687;28;92724;-80
2023/06/29 07:07:07;;;;;;;18.60;9.85;;;;;;;;;;4982129;28;93444;-80
2023/06/29 07:09:34;;;;;;;18.42;10.00;;;;;;;;;;4979824;28;92115;-79
2023/06/29 07:12:01;;;;;;;18.70;10.05;;;;;;;;;;4961430;28;94404;-80
2023/06/29 07:14:28;;;;;;;18.85;10.38;;;;;;;;;;4984130;28;93550;-80
2023/06/29 07:16:55;;;;;;;17.60;9.50;;;;;;;;;;4974626;28;102645;-79
2023/06/29 07:19:22;;;;;;;18.88;10.20;;;;;;;;;;4979952;27;95772;-79
2023/06/29 07:21:51;;;;;;;18.67;10.02;;;;;;;;;;4986156;28;92524;-80
2023/06/29 07:24:21;;;;;;;20.80;10.90;;;;;;;;;;4986904;28;93300;-80
2023/06/29 07:26:48;;;;;;;20.23;10.85;;;;;;;;;;4966657;28;93093;-79
2023/06/29 07:29:15;;;;;;;18.52;10.65;;;;;;;;;;4964609;28;92668;-80
2023/06/29 07:31:41;;;;;;;20.05;10.98;;;;;;;;;;4961338;28;92809;-79
2023/06/29 07:34:08;;;;;;;20.15;11.07;;;;;;;;;;4967797;28;92451;-79
2023/06/29 07:36:36;;;;;;;21.85;11.88;;;;;;;;;;4964069;28;92914;-81
2023/06/29 07:39:03;;;;;;;21.88;12.02;;;;;;;;;;4978718;28;95575;-79
2023/06/29 07:41:31;;;;;;;22.67;12.43;;;;;;;;;;4988428;28;96625;-79
2023/06/29 07:43:59;;;;;;;23.25;12.05;;;;;;;;;;4988448;27;97335;-79
2023/06/29 07:46:26;;;;;;;19.98;10.55;;;;;;;;;;4991450;27;94923;-79
2023/06/29 07:48:54;;;;;;;22.02;11.20;;;;;;;;;;4990583;27;92627;-79
2023/06/29 07:51:21;;;;;;;20.98;11.65;;;;;;;;;;4988433;27;93715;-78
2023/06/29 07:53:50;;;;;;;23.88;12.45;;;;;;;;;;4990292;27;93306;-79
2023/06/29 07:56:17;;;;;;;20.95;11.68;;;;;;;;;;4981792;27;92590;-79
2023/06/29 07:58:44;;;;;;;21.88;11.23;;;;;;;;;;4991601;28;93119;-78
2023/06/29 08:01:11;;;;;;;21.58;11.52;;;;;;;;;;4998896;28;94852;-79
2023/06/29 08:03:38;;;;;;;20.15;11.23;;;;;;;;;;4984561;28;92820;-79
2023/06/29 08:06:24;;;;;;;21.67;10.93;;;;;;;;;;4967863;28;97607;-79
2023/06/29 08:08:54;;;;;;;20.20;11.15;;;;;;;;;;4983469;28;92447;-79
2023/06/29 08:11:21;;;;;;;22.88;11.65;;;;;;;;;;4989032;27;93040;-78
2023/06/29 08:13:47;;;;;;;19.90;11.13;;;;;;;;;;4978393;28;95617;-80
2023/06/29 08:16:14;;;;;;;19.70;10.98;;;;;;;;;;4980126;28;92629;-80
2023/06/29 08:18:41;;;;;;;19.70;11.05;;;;;;;;;;4981155;28;93144;-80
2023/06/29 08:21:10;;;;;;;21.42;11.40;;;;;;;;;;4988216;28;95585;-80
2023/06/29 08:23:36;;;;;;;22.98;11.52;;;;;;;;;;4971684;28;91744;-79
2023/06/29 08:26:06;;;;;;;19.40;11.32;;;;;;;;;;4993399;28;92826;-80
2023/06/29 08:28:33;;;;;;;20.35;11.40;;;;;;;;;;4988311;28;93061;-80
2023/06/29 08:30:59;;;;;;;20.10;11.77;;;;;;;;;;4985982;28;96510;-80
2023/06/29 08:33:26;;;;;;;20.67;11.45;;;;;;;;;;4990452;28;92941;-79
2023/06/29 08:35:53;;;;;;;20.00;11.30;;;;;;;;;;4971871;28;92663;-80
2023/06/29 08:38:19;;;;;;;19.35;10.52;;;;;;;;;;4983230;28;93028;-79
2023/06/29 08:40:47;;;;;;;20.88;11.98;;;;;;;;;;4978294;28;94642;-80
2023/06/29 08:43:15;;;;;;;21.05;11.75;;;;;;;;;;4989460;28;93116;-80
2023/06/29 08:45:42;;;;;;;20.17;10.90;;;;;;;;;;4992036;27;92958;-80
2023/06/29 08:48:09;;;;;;;19.83;11.15;;;;;;;;;;4982874;28;91816;-78
2023/06/29 08:50:38;;;;;;;21.63;11.73;;;;;;;;;;4971206;28;95153;-78
2023/06/29 08:53:05;;;;;;;20.25;11.73;;;;;;;;;;4989927;28;92514;-80
2023/06/29 08:55:32;;;;;;;21.08;12.05;;;;;;;;;;4981206;27;94928;-78
2023/06/29 08:57:59;;;;;;;22.20;12.45;;;;;;;;;;4989940;27;95178;-79
2023/06/29 09:00:26;;;;;;;20.23;11.90;;;;;;;;;;4986368;28;93108;-80
2023/06/29 09:02:55;;;;;;;21.63;11.48;;;;;;;;;;4976574;28;92621;-79
2023/06/29 09:05:22;;;;;;;22.33;12.18;;;;;;;;;;4979729;27;95099;-80
2023/06/29 09:07:50;;;;;;;20.23;11.50;;;;;;;;;;4981625;28;93680;-80
2023/06/29 09:10:17;;;;;;;20.02;11.38;;;;;;;;;;4989083;28;93246;-80
2023/06/29 09:12:43;;;;;;;20.50;11.43;;;;;;;;;;4972450;28;92747;-81
2023/06/29 09:15:10;;;;;;;20.92;11.55;;;;;;;;;;4980087;28;92388;-81
2023/06/29 09:17:37;;;;;;;19.95;11.15;;;;;;;;;;4970111;28;93650;-81
2023/06/29 09:20:13;;;;;;;18.05;10.38;;;;;;;;;;4951427;28;96560;-78
2023/06/29 09:22:40;;;;;;;20.85;11.20;;;;;;;;;;4970831;28;92443;-78
2023/06/29 09:25:09;;;;;;;25.80;11.60;;;;;;;;;;4973136;28;95942;-79
2023/06/29 09:28:04;;;;;;;19.83;11.63;;;;;;;;;;4966782;28;96695;-77
2023/06/29 09:30:36;;;;;;;22.30;11.73;;;;;;;;;;4973117;28;92494;-77
2023/06/29 09:33:07;;;;;;;19.50;11.82;;;;;;;;;;4980203;28;93859;-78
2023/06/29 09:35:34;;;;;;;18.70;10.90;;;;;;;;;;4976958;28;92844;-78
2023/06/29 09:38:02;;;;;;;20.55;11.70;;;;;;;;;;4989285;28;91784;-78
2023/06/29 09:40:29;;;;;;;18.90;11.25;;;;;;;;;;4968414;28;93250;-78
2023/06/29 09:42:56;;;;;;;21.80;12.30;;;;;;;;;;4972495;28;92465;-78
2023/06/29 09:45:23;;;;;;;;;;;;;;;;;;4985954;28;95365;-77
2023/06/29 09:47:51;;;;;;;19.35;11.52;;;;;;;;;;4976277;28;94257;-79
2023/06/29 09:50:21;;;;;;;19.83;11.40;;;;;;;;;;4972262;28;92374;-79
2023/06/29 09:52:50;;;;;;;17.65;10.50;;;;;;;;;;4987282;28;93194;-79
2023/06/29 09:55:27;;;;;;;18.90;11.00;;;;;;;;;;4982989;28;92943;-76
2023/06/29 09:57:56;;;;;;;18.90;11.40;;;;;;;;;;4977906;27;92901;-77
2023/06/29 10:00:22;;;;;;;19.38;11.48;;;;;;;;;;4992615;27;92581;-77
2023/06/29 10:02:49;;;;;;;18.70;10.70;;;;;;;;;;4977452;28;92232;-77
2023/06/29 10:05:16;;;;;;;19.67;11.23;;;;;;;;;;4982725;28;92506;-77
2023/06/29 10:07:43;;;;;;;19.45;10.95;;;;;;;;;;4980124;28;93953;-77
2023/06/29 10:10:13;;;;;;;19.65;10.73;;;;;;;;;;4970278;28;95511;-78
2023/06/29 10:12:40;;;;;;;19.05;10.57;;;;;;;;;;4989440;28;95422;-78
2023/06/29 10:15:09;;;;;;;18.48;10.48;;;;;;;;;;5002473;28;93055;-78
2023/06/29 10:17:51;;;;;;;18.30;10.52;;;;;;;;;;4992713;28;93140;-78
2023/06/29 10:20:18;;;;;;;18.30;10.70;;;;;;;;;;4984889;28;92901;-77
2023/06/29 10:22:47;;;;;;;19.38;10.90;;;;;;;;;;4992642;28;92454;-78
2023/06/29 10:25:19;;;;;;;17.55;10.10;;;;;;;;;;4989565;28;95014;-78
2023/06/29 10:27:47;;;;;;;17.08;10.15;;;;;;;;;;4993383;28;96731;-78
2023/06/29 10:30:17;;;;;;;19.13;10.30;;;;;;;;;;4995565;28;92957;-78
2023/06/29 10:32:47;;;;;;;17.15;9.82;;;;;;;;;;4988719;28;92792;-78
2023/06/29 10:35:14;;;;;;;18.33;10.18;;;;;;;;;;4990850;28;95130;-78
2023/06/29 10:37:41;;;;;;;16.35;9.68;;;;;;;;;;4998769;28;92824;-78
2023/06/29 10:40:11;;;;;;;17.27;10.10;;;;;;;;;;4987704;28;92585;-78
2023/06/29 10:42:37;;;;;;;17.75;9.55;;;;;;;;;;4999225;28;92490;-78
2023/06/29 10:45:20;;;;;;;17.15;9.98;;;;;;;;;;5001875;28;93098;-78
2023/06/29 10:47:55;;;;;;;17.60;9.82;;;;;;;;;;4991758;28;96510;-78
2023/06/29 10:50:28;;;;;;;17.42;9.70;;;;;;;;;;4998515;28;92870;-78
2023/06/29 10:52:58;;;;;;;17.67;9.63;;;;;;;;;;5000728;27;91797;-78
2023/06/29 10:55:27;;;;;;;18.67;10.20;;;;;;;;;;4997705;28;92985;-77
2023/06/29 10:57:54;;;;;;;17.92;9.75;;;;;;;;;;5001975;28;92505;-77
2023/06/29 11:00:22;;;;;;;16.88;9.52;;;;;;;;;;4993106;28;95328;-77
2023/06/29 11:02:49;;;;;;;16.45;9.60;;;;;;;;;;4966765;28;93109;-77
2023/06/29 11:05:17;;;;;;;17.63;9.95;;;;;;;;;;4959243;28;93839;-78
2023/06/29 11:07:44;;;;;;;17.92;9.88;;;;;;;;;;4965117;28;93078;-77
2023/06/29 11:10:11;;;;;;;18.13;10.05;;;;;;;;;;4974560;28;92495;-78
2023/06/29 11:12:38;;;;;;;19.95;10.63;;;;;;;;;;4973864;28;94138;-78
2023/06/29 11:15:10;;;;;;;17.75;10.52;;;;;;;;;;4960674;28;93293;-78
2023/06/29 11:17:57;;;;;;;19.35;10.40;;;;;;;;;;4986037;27;94344;-77
2023/06/29 11:20:24;;;;;;;;;;;;;;;;;;4995673;27;92978;-78
2023/06/29 11:22:51;;;;;;;16.00;9.05;;;;;;;;;;4983013;27;92814;-77
2023/06/29 11:25:18;;;;;;;16.80;9.98;;;;;;;;;;4980903;28;95285;-77
2023/06/29 11:27:45;;;;;;;15.75;9.38;;;;;;;;;;4978831;28;98840;-76
2023/06/29 11:30:12;;;;;;;;;;;;;;;;;;4968296;28;92735;-77
2023/06/29 11:32:39;;;;;;;16.52;9.13;;;;;;;;;;4978252;28;116928;-77
2023/06/29 11:35:06;;;;;;;15.75;9.68;;;;;;;;;;4968753;28;93802;-77
2023/06/29 11:37:35;;;;;;;19.92;10.27;;;;;;;;;;4967448;28;92501;-77
2023/06/29 11:40:07;;;;;;;15.90;9.52;;;;;;;;;;4968169;28;93279;-77
2023/06/29 11:42:35;;;;;;;17.30;10.48;;;;;;;;;;4971347;28;93417;-77
2023/06/29 11:45:06;;;;;;;16.17;9.88;;;;;;;;;;4957195;28;93300;-77
2023/06/29 11:47:33;;;;;;;17.30;9.52;;;;;;;;;;4981907;28;93350;-77
2023/06/29 11:50:00;;;;;;;19.42;10.25;;;;;;;;;;4964933;28;95596;-77
2023/06/29 11:52:30;;;;;;;16.60;9.68;;;;;;;;;;4958677;28;95654;-76
2023/06/29 11:54:57;;;;;;;18.85;10.18;;;;;;;;;;4968304;28;93285;-77
2023/06/29 11:57:24;;;;;;;18.05;10.50;;;;;;;;;;4968231;28;92898;-76
2023/06/29 11:59:51;;;;;;;18.85;10.52;;;;;;;;;;4970360;28;93448;-76
2023/06/29 12:02:19;;;;;;;17.38;10.32;;;;;;;;;;4967495;28;93581;-76
2023/06/29 12:04:59;;;;;;;16.75;10.00;;;;;;;;;;4971035;28;92479;-75
2023/06/29 12:07:36;;;;;;;18.35;10.30;;;;;;;;;;4998744;28;92472;-76
2023/06/29 12:10:04;;;;;;;17.80;11.18;;;;;;;;;;4961335;28;92877;-75
2023/06/29 12:12:48;;;;;;;19.10;10.45;;;;;;;;;;4973861;28;93435;-76
2023/06/29 12:15:21;;;;;;;17.63;10.68;;;;;;;;;;4985698;28;97140;-75
2023/06/29 12:17:50;;;;;;;;;;;;;;;;;;4982937;28;93991;-76
2023/06/29 12:20:19;;;;;;;;;;;;;;;;;;5010192;28;93882;-75
2023/06/29 12:22:47;;;;;;;15.73;9.13;;;;;;;;;;4985299;28;93028;-75
2023/06/29 12:25:15;;;;;;;18.02;10.07;;;;;;;;;;4988040;28;92465;-76
2023/06/29 12:27:42;;;;;;;17.13;9.82;;;;;;;;;;4979098;28;92947;-75
2023/06/29 12:30:10;;;;;;;16.92;9.75;;;;;;;;;;4989659;27;93003;-76
2023/06/29 12:32:37;;;;;;;16.80;9.77;;;;;;;;;;4991311;28;92917;-75
2023/06/29 12:35:04;;;;;;;17.20;10.05;;;;;;;;;;4982444;28;94013;-75
2023/06/29 12:37:34;;;;;;;16.30;9.50;;;;;;;;;;4987544;27;92912;-75
2023/06/29 12:40:04;;;;;;;17.02;9.60;;;;;;;;;;4986690;28;94860;-75
2023/06/29 12:42:32;;;;;;;17.45;9.45;;;;;;;;;;4988441;28;93324;-77
2023/06/29 12:45:02;;;;;;;17.60;9.95;;;;;;;;;;4991771;27;92413;-76
2023/06/29 12:47:35;;;;;;;17.13;9.60;;;;;;;;;;4990851;28;95585;-76
2023/06/29 12:50:03;;;;;;;16.75;9.50;;;;;;;;;;4971933;28;92909;-77
2023/06/29 12:52:30;;;;;;;15.75;9.40;;;;;;;;;;4970120;28;92466;-75
2023/06/29 12:54:56;;;;;;;15.85;9.43;;;;;;;;;;4974598;28;93178;-76
2023/06/29 12:57:28;;;;;;;16.55;9.35;;;;;;;;;;4993307;28;92094;-76
2023/06/29 12:59:56;;;;;;;16.70;9.52;;;;;;;;;;4989520;28;93084;-76
2023/06/29 13:02:23;;;;;;;14.90;9.25;;;;;;;;;;4987559;28;95741;-76
2023/06/29 13:04:50;;;;;;;16.30;9.23;;;;;;;;;;4988168;28;95291;-76
2023/06/29 13:07:17;;;;;;;16.45;9.23;;;;;;;;;;4990091;28;95088;-76
2023/06/29 13:09:44;;;;;;;16.25;9.75;;;;;;;;;;4991899;28;94213;-76
2023/06/29 13:12:17;;;;;;;;;;;;;;;;;;4993002;28;93305;-76
2023/06/29 13:14:45;;;;;;;16.95;10.20;;;;;;;;;;4987908;28;104401;-76
2023/06/29 13:17:12;;;;;;;16.65;9.98;;;;;;;;;;4987587;28;92901;-76
2023/06/29 13:19:39;;;;;;;16.77;10.48;;;;;;;;;;4987651;28;93317;-76
2023/06/29 13:22:06;;;;;;;16.80;9.85;;;;;;;;;;4988211;28;93464;-77
2023/06/29 13:24:33;;;;;;;17.85;10.30;;;;;;;;;;4982098;28;92482;-76
2023/06/29 13:27:01;;;;;;;17.10;9.80;;;;;;;;;;4998802;28;92994;-76
2023/06/29 13:29:27;;;;;;;15.38;9.35;;;;;;;;;;4987286;28;95465;-75
2023/06/29 13:31:54;;;;;;;16.05;9.35;;;;;;;;;;4993139;28;92833;-75
2023/06/29 13:34:20;;;;;;;21.35;11.90;;;;;;;;;;4981706;28;93537;-76
2023/06/29 13:36:47;;;;;;;24.15;12.40;;;;;;;;;;4980945;28;92479;-76
2023/06/29 13:39:14;;;;;;;21.05;12.23;;;;;;;;;;4979858;28;94634;-76
2023/06/29 13:41:42;;;;;;;24.80;12.73;;;;;;;;;;4997333;27;92699;-77
2023/06/29 13:44:09;;;;;;;22.90;12.27;;;;;;;;;;4971817;28;92537;-76
2023/06/29 13:46:36;;;;;;;20.10;11.75;;;;;;;;;;4990127;28;95285;-76
2023/06/29 13:49:03;;;;;;;21.38;12.43;;;;;;;;;;4987990;28;95656;-76
2023/06/29 13:51:30;;;;;;;21.80;11.93;;;;;;;;;;4987446;27;92697;-76
2023/06/29 13:53:56;;;;;;;;;;;;;;;;;;4985253;28;94917;-76
2023/06/29 13:56:24;;;;;;;19.52;11.35;;;;;;;;;;4990513;28;103561;-76
2023/06/29 13:58:53;;;;;;;23.17;11.93;;;;;;;;;;4988152;27;94333;-76
2023/06/29 14:01:20;;;;;;;20.60;11.60;;;;;;;;;;4987161;27;94540;-75
2023/06/29 14:03:47;;;;;;;19.73;11.30;;;;;;;;;;4988144;28;93198;-76
2023/06/29 14:06:18;;;;;;;20.13;11.90;;;;;;;;;;4982435;28;92609;-76
2023/06/29 14:08:45;;;;;;;22.05;12.30;;;;;;;;;;4988934;28;93031;-76
2023/06/29 14:11:12;;;;;;;22.30;12.15;;;;;;;;;;4991630;28;91920;-76
2023/06/29 14:13:39;;;;;;;22.48;12.00;;;;;;;;;;4985873;28;93082;-75
2023/06/29 14:16:06;;;;;;;18.85;11.20;;;;;;;;;;4992120;28;93021;-75
2023/06/29 14:18:32;;;;;;;19.70;10.55;;;;;;;;;;4971130;28;97065;-76
2023/06/29 14:20:59;;;;;;;20.35;11.50;;;;;;;;;;4979167;28;96026;-76
2023/06/29 14:23:25;;;;;;;18.70;10.80;;;;;;;;;;4986704;28;93123;-75
2023/06/29 14:25:52;;;;;;;20.40;10.55;;;;;;;;;;4988686;28;93230;-76
2023/06/29 14:28:19;;;;;;;19.83;10.38;;;;;;;;;;4985220;28;92874;-75
2023/06/29 14:30:45;;;;;;;19.20;10.95;;;;;;;;;;4975777;28;92654;-76